METAR AND TAF INFORMATION
METAR FOR UUDD
ADDS - METARS form results

(0256 UTC 26 April 2019)
Data provider http://aviationweather.gov/metar/data/
 
METAR text: UUDD 260230Z 32003MPS CAVOK 10/02 Q1021 R32L/CLRD95 NOSIG
Conditions at: UUDD (MOSCOW/DOMODEDOV, RU) observed 0230 UTC 26 April 2019
Temperature: 10.0°C (50°F)
Dewpoint: 2.0°C (36°F) [RH = 57%]
Pressure (altimeter): 30.15 inches Hg (1021.0 mb)
Winds: from the NW (320 degrees) at 7 MPH (6 knots; 3.1 m/s)
Visibility: 6 or more miles (10+ km)
Ceiling: ceiling and visibility are OK
Clouds: unknown
Weather: no significant weather observed at this time

METAR text: UUDD 260200Z VRB01MPS CAVOK 09/01 Q1021 R32L/CLRD95 NOSIG
Conditions at: UUDD (MOSCOW/DOMODEDOV, RU) observed 0200 UTC 26 April 2019
Temperature: 9.0°C (48°F)
Dewpoint: 1.0°C (34°F) [RH = 57%]
Pressure (altimeter): 30.15 inches Hg (1021.0 mb)
Winds: variable direction winds at 2 MPH (2 knots; 1.0 m/s)
Visibility: 6 or more miles (10+ km)
Ceiling: ceiling and visibility are OK
Clouds: unknown
Weather: no significant weather observed at this time

Forecast for: UUDD (MOSCOW/DOMODEDOV, RU)
Text: TAF UUDD 260156Z 2603/2709 08003MPS 9999 SCT040 TX23/2612Z TN08/2703Z
Forecast period: 0300 UTC 26 April 2019 to 0900 UTC 27 April 2019
Forecast type: FROM: standard forecast or significant change
Winds: from the E (80 degrees) at 7 MPH (6 knots; 3.1 m/s)
Visibility: 6 or more miles 10+ km)
Ceiling: at least 12,000 feet AGL
Clouds: scattered clouds at 4000 feet AGL
Weather: no significant weather forecast for this period

 AIRPORT MAP

 RUNWAY INFORMATION

 AIRPORT FREQUENCIES
Type APP Name APP Frequency 120.6 MHZ
Type ATIS Name ATIS Frequency 128.3 MHZ
Type CLD Name DELIVERY Frequency 123.75 MHZ
Type GND Name TAXIING Frequency 119 MHZ
Type MISC Name TRANSIT Frequency 129.15 MHZ
Type PMSV Name VOLMET Frequency 127.875 MHZ
Type RDR Name KRUG Frequency 127.7 MHZ
Type RMP Name APRON Frequency 130.6 MHZ
Type TWR Name TWR Frequency 118.6 MHZ

 AIRPORT NEAR NAVIGATION AIDS
Type NDB Name Domodedovo Frequency 437 KHZ
Type NDB Name Domodedovo Frequency 659 KHZ
Type NDB Name Domodedovo Frequency 659 KHZ
Type NDB Name Domodedovo Frequency 437 KHZ
Type NDB Name Domodedovo Frequency 887 KHZ
Type NDB Name Domodedovo Frequency 320 KHZ
Type NDB Name Domodedovo Frequency 320 KHZ
Type NDB Name Domodedovo Frequency 887 KHZ



2018 Air Astana Virtual Airline